Aérodrome :
LOGIN :

S'inscrire | Disclaimer

   EN    FR    IT 

 










Légende :    VFR   VFR Marginal   IFR   IFR Intensif   IFR Très Intensif
Visi : 
Plafond : 
>= 8 km
>= 3000ft
5 à 8 km
1000 à 3000 ft
1500m à 5 km
500 à 1000 ft
800 à 1500m
200 à 500 ft
< 800m
< 200 ft
Symboles :   Orages  Brouillard  Fortes neiges  Fortes précipitations  Vent > 20 kt
SIGMETs :   Divers  Orages  Givrage  Turbulence  Onde Orograph.  Cendres Volcan.







- Altitude de l'aérodrome : 358 ft
- Voir les cartes d'approche


EGTC - Cranfield

DERNIER METAR :
  • 181250Z 09010KT 020V130 6000 FEW036 19/11 Q1023

METARs EXPIRÉS :
  • 181220Z 08009KT 040V120 4500 HZ FEW030 19/11 Q1023
  • 181150Z 08010KT 040V110 3000 HZ NSC 17/12 Q1023
  • 181120Z 08010KT 2500 HZ NSC 16/12 Q1024
  • 181050Z 06008KT 2500 HZ NSC 15/12 Q1024
  • 181020Z 05007KT 030V100 2000 HZ NSC 14/12 Q1024

TAF TAF EGTC
Valide du 18 à 12h jusqu'au 18 à 18h UTC


181105Z 1812/1818 08008KT 4000 HZ NSC
BECMG 1812/1814 8000 NSW
TEMPO 1814/1818 9999
Pas de NOTAMs connus pour ce terrain.



MET'MAP, la Météo Aéronautique d'un coup d'oeil ! - Copyright ORBIFLY Décembre 2007 - Disclaimer

ORBIFLY MET'MAP TEAM :

Programmation & Développement : Alexandra Zaïnal
Conception & Développement : Baudouin d'Aumeries
Co-Programmation & Développement : Marc-Olivier Méhu
Soutien technique & logistique : Manuel Goepfert

Contact : metmap@orbifly.com




SOURCES & CREDITS :

   NOAA